Watkins Glen, New York
Current Conditions -  °F | °C
As of 12:53 PM on Sunday 21 Dec 2014 (Local Time) from KELM Reporting Station
Overcast Overcast  
Wind Chill: 26°   Ceiling: 2700
Heat Index: 32°   Visibility: 10mi
Dew Point: 22°   Wind: 7mph
Humidity: 66%   Direction: 310°NW
Pressure: 30.28"   Gusts: NA
Location:  42.38°N, 76.87°W
Report Text: KELM 211753Z 31006KT 10SM OVC027 00/M06 A3028 RMK AO2 SLP265 T00001056 10006 21033 58010
Loading
Personal Weather Stations






























Interactive Weather Map New forecast layout! Learn more

10-Day Weather Forecast

Advertisements
Track Severe Weather on mobile